sensor_id;sensor_type;location;lat;lon;timestamp;pressure;altitude;pressure_sealevel;temperature;humidity
84841;BME280;75088;53.114;18.040;2024-02-21T00:01:02;101671.05;;;5.57;84.18
84841;BME280;75088;53.114;18.040;2024-02-21T00:02:22;101675.80;;;5.57;84.53
84841;BME280;75088;53.114;18.040;2024-02-21T00:03:29;101673.33;;;5.57;84.58
84841;BME280;75088;53.114;18.040;2024-02-21T00:04:36;101671.94;;;5.57;84.57
84841;BME280;75088;53.114;18.040;2024-02-21T00:05:44;101669.66;;;5.58;84.35
84841;BME280;75088;53.114;18.040;2024-02-21T00:06:51;101671.44;;;5.58;84.36
84841;BME280;75088;53.114;18.040;2024-02-21T00:07:59;101670.23;;;5.60;84.35
84841;BME280;75088;53.114;18.040;2024-02-21T00:09:06;101669.17;;;5.60;84.35
84841;BME280;75088;53.114;18.040;2024-02-21T00:10:15;101669.89;;;5.60;84.86
84841;BME280;75088;53.114;18.040;2024-02-21T00:11:22;101666.35;;;5.60;84.91
84841;BME280;75088;53.114;18.040;2024-02-21T00:12:29;101668.48;;;5.60;84.63
84841;BME280;75088;53.114;18.040;2024-02-21T00:13:36;101664.80;;;5.61;84.70
84841;BME280;75088;53.114;18.040;2024-02-21T00:14:43;101668.14;;;5.61;84.78
84841;BME280;75088;53.114;18.040;2024-02-21T00:15:50;101666.58;;;5.61;84.55
84841;BME280;75088;53.114;18.040;2024-02-21T00:16:58;101666.08;;;5.62;84.54
84841;BME280;75088;53.114;18.040;2024-02-21T00:18:06;101664.48;;;5.63;84.60
84841;BME280;75088;53.114;18.040;2024-02-21T00:19:12;101662.59;;;5.64;84.57
84841;BME280;75088;53.114;18.040;2024-02-21T00:20:20;101659.95;;;5.65;84.84
84841;BME280;75088;53.114;18.040;2024-02-21T00:21:27;101656.06;;;5.64;84.56
84841;BME280;75088;53.114;18.040;2024-02-21T00:22:34;101659.42;;;5.64;84.42
84841;BME280;75088;53.114;18.040;2024-02-21T00:23:41;101653.79;;;5.65;84.71
84841;BME280;75088;53.114;18.040;2024-02-21T00:24:48;101654.71;;;5.66;84.83
84841;BME280;75088;53.114;18.040;2024-02-21T00:25:55;101656.48;;;5.66;84.93
84841;BME280;75088;53.114;18.040;2024-02-21T00:27:03;101656.67;;;5.67;84.86
84841;BME280;75088;53.114;18.040;2024-02-21T00:28:10;101655.11;;;5.68;84.74
84841;BME280;75088;53.114;18.040;2024-02-21T00:29:17;101656.16;;;5.68;84.73
84841;BME280;75088;53.114;18.040;2024-02-21T00:30:24;101651.27;;;5.69;84.84
84841;BME280;75088;53.114;18.040;2024-02-21T00:31:31;101654.62;;;5.69;84.73
84841;BME280;75088;53.114;18.040;2024-02-21T00:32:39;101651.65;;;5.70;84.68
84841;BME280;75088;53.114;18.040;2024-02-21T00:33:45;101648.82;;;5.70;84.67
84841;BME280;75088;53.114;18.040;2024-02-21T00:34:53;101649.70;;;5.71;84.43
84841;BME280;75088;53.114;18.040;2024-02-21T00:36:00;101645.30;;;5.70;84.28
84841;BME280;75088;53.114;18.040;2024-02-21T00:37:07;101644.95;;;5.71;84.75
84841;BME280;75088;53.114;18.040;2024-02-21T00:38:14;101644.79;;;5.71;84.41
84841;BME280;75088;53.114;18.040;2024-02-21T00:39:21;101644.95;;;5.71;84.46
84841;BME280;75088;53.114;18.040;2024-02-21T00:40:28;101640.70;;;5.70;84.42
84841;BME280;75088;53.114;18.040;2024-02-21T00:41:35;101644.08;;;5.71;84.24
84841;BME280;75088;53.114;18.040;2024-02-21T00:42:43;101643.20;;;5.71;84.44
84841;BME280;75088;53.114;18.040;2024-02-21T00:43:50;101640.02;;;5.71;84.21
84841;BME280;75088;53.114;18.040;2024-02-21T00:44:57;101635.81;;;5.72;84.23
84841;BME280;75088;53.114;18.040;2024-02-21T00:46:06;101635.63;;;5.72;84.28
84841;BME280;75088;53.114;18.040;2024-02-21T00:47:14;101640.38;;;5.71;84.27
84841;BME280;75088;53.114;18.040;2024-02-21T00:48:21;101638.63;;;5.72;84.42
84841;BME280;75088;53.114;18.040;2024-02-21T00:49:28;101638.81;;;5.72;84.28
84841;BME280;75088;53.114;18.040;2024-02-21T00:50:36;101639.86;;;5.72;84.30
84841;BME280;75088;53.114;18.040;2024-02-21T00:51:43;101641.45;;;5.72;84.26
84841;BME280;75088;53.114;18.040;2024-02-21T00:52:50;101639.88;;;5.72;84.44
84841;BME280;75088;53.114;18.040;2024-02-21T00:53:57;101634.40;;;5.72;84.36
84841;BME280;75088;53.114;18.040;2024-02-21T00:55:06;101638.80;;;5.71;84.46
84841;BME280;75088;53.114;18.040;2024-02-21T00:56:13;101635.08;;;5.71;84.49
84841;BME280;75088;53.114;18.040;2024-02-21T00:57:20;101631.21;;;5.71;84.47
84841;BME280;75088;53.114;18.040;2024-02-21T00:58:27;101633.50;;;5.71;84.50
84841;BME280;75088;53.114;18.040;2024-02-21T00:59:34;101631.39;;;5.71;84.30
84841;BME280;75088;53.114;18.040;2024-02-21T01:00:41;101630.16;;;5.71;84.32
84841;BME280;75088;53.114;18.040;2024-02-21T01:01:48;101627.31;;;5.70;84.35
84841;BME280;75088;53.114;18.040;2024-02-21T01:02:55;101624.49;;;5.70;84.35
84841;BME280;75088;53.114;18.040;2024-02-21T01:04:03;101623.44;;;5.70;84.39
84841;BME280;75088;53.114;18.040;2024-02-21T01:05:10;101619.37;;;5.70;84.40
84841;BME280;75088;53.114;18.040;2024-02-21T01:06:18;101616.38;;;5.70;84.33
84841;BME280;75088;53.114;18.040;2024-02-21T01:07:25;101617.97;;;5.70;84.51
84841;BME280;75088;53.114;18.040;2024-02-21T01:08:32;101616.57;;;5.71;84.25
84841;BME280;75088;53.114;18.040;2024-02-21T01:09:39;101616.23;;;5.71;84.50
84841;BME280;75088;53.114;18.040;2024-02-21T01:10:46;101617.11;;;5.71;84.37
84841;BME280;75088;53.114;18.040;2024-02-21T01:11:53;101618.00;;;5.72;84.35
84841;BME280;75088;53.114;18.040;2024-02-21T01:13:00;101612.88;;;5.72;84.47
84841;BME280;75088;53.114;18.040;2024-02-21T01:14:07;101615.17;;;5.72;84.55
84841;BME280;75088;53.114;18.040;2024-02-21T01:15:14;101611.83;;;5.71;84.31
84841;BME280;75088;53.114;18.040;2024-02-21T01:16:21;101613.79;;;5.72;84.59
84841;BME280;75088;53.114;18.040;2024-02-21T01:17:29;101606.54;;;5.72;84.24
84841;BME280;75088;53.114;18.040;2024-02-21T01:18:36;101604.63;;;5.72;84.64
84841;BME280;75088;53.114;18.040;2024-02-21T01:19:45;101605.86;;;5.73;84.64
84841;BME280;75088;53.114;18.040;2024-02-21T01:20:52;101602.68;;;5.72;84.48
84841;BME280;75088;53.114;18.040;2024-02-21T01:21:59;101600.19;;;5.72;84.50
84841;BME280;75088;53.114;18.040;2024-02-21T01:23:06;101598.78;;;5.72;84.25
84841;BME280;75088;53.114;18.040;2024-02-21T01:24:13;101600.20;;;5.71;84.39
84841;BME280;75088;53.114;18.040;2024-02-21T01:25:20;101602.13;;;5.71;84.54
84841;BME280;75088;53.114;18.040;2024-02-21T01:26:37;101597.20;;;5.72;84.75
84841;BME280;75088;53.114;18.040;2024-02-21T01:27:44;101594.19;;;5.71;84.66
84841;BME280;75088;53.114;18.040;2024-02-21T01:28:51;101594.54;;;5.71;84.55
84841;BME280;75088;53.114;18.040;2024-02-21T01:29:58;101591.90;;;5.71;84.80
84841;BME280;75088;53.114;18.040;2024-02-21T01:31:06;101595.05;;;5.71;84.58
84841;BME280;75088;53.114;18.040;2024-02-21T01:32:13;101592.41;;;5.71;84.58
84841;BME280;75088;53.114;18.040;2024-02-21T01:33:20;101589.58;;;5.70;84.50
84841;BME280;75088;53.114;18.040;2024-02-21T01:34:27;101587.09;;;5.70;84.59
84841;BME280;75088;53.114;18.040;2024-02-21T01:35:35;101588.84;;;5.69;84.48
84841;BME280;75088;53.114;18.040;2024-02-21T01:36:43;101587.41;;;5.68;84.77
84841;BME280;75088;53.114;18.040;2024-02-21T01:37:50;101587.39;;;5.67;84.49
84841;BME280;75088;53.114;18.040;2024-02-21T01:38:58;101584.02;;;5.66;84.56
84841;BME280;75088;53.114;18.040;2024-02-21T01:40:07;101584.67;;;5.64;84.59
84841;BME280;75088;53.114;18.040;2024-02-21T01:41:14;101582.00;;;5.63;84.50
84841;BME280;75088;53.114;18.040;2024-02-21T01:42:22;101585.16;;;5.63;84.48
84841;BME280;75088;53.114;18.040;2024-02-21T01:43:29;101586.21;;;5.62;84.61
84841;BME280;75088;53.114;18.040;2024-02-21T01:44:36;101585.12;;;5.61;84.87
84841;BME280;75088;53.114;18.040;2024-02-21T01:45:44;101580.52;;;5.61;84.80
84841;BME280;75088;53.114;18.040;2024-02-21T01:46:53;101582.29;;;5.61;84.56
84841;BME280;75088;53.114;18.040;2024-02-21T01:48:00;101577.52;;;5.60;84.76
84841;BME280;75088;53.114;18.040;2024-02-21T01:49:08;101579.64;;;5.60;84.59
84841;BME280;75088;53.114;18.040;2024-02-21T01:50:16;101578.89;;;5.59;84.65
84841;BME280;75088;53.114;18.040;2024-02-21T01:51:24;101580.98;;;5.58;84.49
84841;BME280;75088;53.114;18.040;2024-02-21T01:52:31;101582.55;;;5.57;84.47
84841;BME280;75088;53.114;18.040;2024-02-21T01:53:40;101580.08;;;5.57;84.67
84841;BME280;75088;53.114;18.040;2024-02-21T01:54:49;101580.08;;;5.56;84.92
84841;BME280;75088;53.114;18.040;2024-02-21T01:55:57;101580.25;;;5.57;84.92
84841;BME280;75088;53.114;18.040;2024-02-21T01:57:04;101577.79;;;5.57;84.94
84841;BME280;75088;53.114;18.040;2024-02-21T01:58:12;101576.39;;;5.57;84.84
84841;BME280;75088;53.114;18.040;2024-02-21T01:59:20;101576.04;;;5.57;85.03
84841;BME280;75088;53.114;18.040;2024-02-21T02:00:28;101574.27;;;5.57;84.86
84841;BME280;75088;53.114;18.040;2024-02-21T02:01:35;101570.92;;;5.57;84.68
84841;BME280;75088;53.114;18.040;2024-02-21T02:02:43;101570.93;;;5.58;84.73
84841;BME280;75088;53.114;18.040;2024-02-21T02:03:50;101570.75;;;5.57;84.87
84841;BME280;75088;53.114;18.040;2024-02-21T02:04:58;101568.81;;;5.57;84.80
84841;BME280;75088;53.114;18.040;2024-02-21T02:06:07;101570.23;;;5.57;84.73
84841;BME280;75088;53.114;18.040;2024-02-21T02:07:14;101571.66;;;5.59;85.15
84841;BME280;75088;53.114;18.040;2024-02-21T02:08:21;101572.73;;;5.59;85.25
84841;BME280;75088;53.114;18.040;2024-02-21T02:09:28;101569.04;;;5.59;85.07
84841;BME280;75088;53.114;18.040;2024-02-21T02:10:35;101571.91;;;5.61;85.11
84841;BME280;75088;53.114;18.040;2024-02-21T02:11:43;101568.21;;;5.61;85.08
84841;BME280;75088;53.114;18.040;2024-02-21T02:12:51;101566.63;;;5.62;85.06
84841;BME280;75088;53.114;18.040;2024-02-21T02:13:58;101566.64;;;5.62;84.62
84841;BME280;75088;53.114;18.040;2024-02-21T02:15:06;101566.48;;;5.63;84.71
84841;BME280;75088;53.114;18.040;2024-02-21T02:16:14;101563.51;;;5.64;84.81
84841;BME280;75088;53.114;18.040;2024-02-21T02:17:21;101564.94;;;5.65;85.02
84841;BME280;75088;53.114;18.040;2024-02-21T02:18:29;101558.63;;;5.66;84.86
84841;BME280;75088;53.114;18.040;2024-02-21T02:19:35;101560.94;;;5.66;84.72
84841;BME280;75088;53.114;18.040;2024-02-21T02:20:43;101554.23;;;5.67;84.80
84841;BME280;75088;53.114;18.040;2024-02-21T02:21:56;101554.23;;;5.67;84.67
84841;BME280;75088;53.114;18.040;2024-02-21T02:23:09;101552.84;;;5.67;84.80
84841;BME280;75088;53.114;18.040;2024-02-21T02:24:17;101550.73;;;5.67;84.94
84841;BME280;75088;53.114;18.040;2024-02-21T02:25:24;101550.38;;;5.68;84.87
84841;BME280;75088;53.114;18.040;2024-02-21T02:26:31;101550.56;;;5.68;84.72
84841;BME280;75088;53.114;18.040;2024-02-21T02:27:44;101548.61;;;5.67;84.67
84841;BME280;75088;53.114;18.040;2024-02-21T02:28:51;101546.52;;;5.68;84.87
84841;BME280;75088;53.114;18.040;2024-02-21T02:29:58;101548.27;;;5.68;84.72
84841;BME280;75088;53.114;18.040;2024-02-21T02:31:05;101548.98;;;5.68;84.88
84841;BME280;75088;53.114;18.040;2024-02-21T02:32:12;101549.87;;;5.68;85.04
84841;BME280;75088;53.114;18.040;2024-02-21T02:33:19;101548.46;;;5.68;84.81
84841;BME280;75088;53.114;18.040;2024-02-21T02:34:26;101541.41;;;5.68;84.94
84841;BME280;75088;53.114;18.040;2024-02-21T02:35:34;101544.95;;;5.69;84.99
84841;BME280;75088;53.114;18.040;2024-02-21T02:36:44;101544.41;;;5.69;84.97
84841;BME280;75088;53.114;18.040;2024-02-21T02:37:51;101544.08;;;5.69;85.12
84841;BME280;75088;53.114;18.040;2024-02-21T02:38:58;101540.02;;;5.69;85.02
84841;BME280;75088;53.114;18.040;2024-02-21T02:40:07;101538.97;;;5.70;85.05
84841;BME280;75088;53.114;18.040;2024-02-21T02:41:14;101537.58;;;5.70;84.67
84841;BME280;75088;53.114;18.040;2024-02-21T02:42:21;101534.59;;;5.71;84.76
84841;BME280;75088;53.114;18.040;2024-02-21T02:43:28;101537.05;;;5.70;84.73
84841;BME280;75088;53.114;18.040;2024-02-21T02:44:35;101537.74;;;5.70;84.83
84841;BME280;75088;53.114;18.040;2024-02-21T02:45:43;101537.41;;;5.71;84.49
84841;BME280;75088;53.114;18.040;2024-02-21T02:46:50;101533.35;;;5.71;84.69
84841;BME280;75088;53.114;18.040;2024-02-21T02:47:57;101534.58;;;5.71;84.60
84841;BME280;75088;53.114;18.040;2024-02-21T02:49:04;101532.48;;;5.71;84.56
84841;BME280;75088;53.114;18.040;2024-02-21T02:50:12;101529.30;;;5.71;84.76
84841;BME280;75088;53.114;18.040;2024-02-21T02:51:19;101525.77;;;5.71;84.67
84841;BME280;75088;53.114;18.040;2024-02-21T02:52:26;101524.36;;;5.70;84.86
84841;BME280;75088;53.114;18.040;2024-02-21T02:53:33;101523.48;;;5.71;84.71
84841;BME280;75088;53.114;18.040;2024-02-21T02:54:40;101520.83;;;5.71;84.48
84841;BME280;75088;53.114;18.040;2024-02-21T02:55:48;101523.11;;;5.70;84.74
84841;BME280;75088;53.114;18.040;2024-02-21T02:56:55;101522.20;;;5.69;85.04
84841;BME280;75088;53.114;18.040;2024-02-21T02:58:02;101521.86;;;5.70;84.94
84841;BME280;75088;53.114;18.040;2024-02-21T02:59:09;101522.38;;;5.69;84.79
84841;BME280;75088;53.114;18.040;2024-02-21T03:00:17;101519.21;;;5.69;84.97
84841;BME280;75088;53.114;18.040;2024-02-21T03:01:25;101519.73;;;5.69;84.80
84841;BME280;75088;53.114;18.040;2024-02-21T03:02:33;101514.62;;;5.69;85.03
84841;BME280;75088;53.114;18.040;2024-02-21T03:03:39;101516.55;;;5.68;84.97
84841;BME280;75088;53.114;18.040;2024-02-21T03:04:47;101517.24;;;5.68;85.02
84841;BME280;75088;53.114;18.040;2024-02-21T03:05:54;101513.88;;;5.67;85.12
84841;BME280;75088;53.114;18.040;2024-02-21T03:07:01;101512.46;;;5.67;85.08
84841;BME280;75088;53.114;18.040;2024-02-21T03:08:08;101515.80;;;5.67;85.03
84841;BME280;75088;53.114;18.040;2024-02-21T03:09:15;101509.46;;;5.67;85.07
84841;BME280;75088;53.114;18.040;2024-02-21T03:10:23;101515.11;;;5.67;84.90
84841;BME280;75088;53.114;18.040;2024-02-21T03:11:30;101510.86;;;5.67;85.14
84841;BME280;75088;53.114;18.040;2024-02-21T03:12:37;101512.10;;;5.67;85.07
84841;BME280;75088;53.114;18.040;2024-02-21T03:13:45;101507.52;;;5.67;85.18
84841;BME280;75088;53.114;18.040;2024-02-21T03:14:51;101507.52;;;5.67;84.87
84841;BME280;75088;53.114;18.040;2024-02-21T03:16:00;101505.56;;;5.66;85.07
84841;BME280;75088;53.114;18.040;2024-02-21T03:17:07;101504.50;;;5.66;85.22
84841;BME280;75088;53.114;18.040;2024-02-21T03:18:14;101508.91;;;5.66;85.17
84841;BME280;75088;53.114;18.040;2024-02-21T03:19:21;101504.66;;;5.66;85.19
84841;BME280;75088;53.114;18.040;2024-02-21T03:20:29;101502.88;;;5.64;85.01
84841;BME280;75088;53.114;18.040;2024-02-21T03:21:36;101500.96;;;5.65;85.16
84841;BME280;75088;53.114;18.040;2024-02-21T03:22:43;101506.96;;;5.66;85.06
84841;BME280;75088;53.114;18.040;2024-02-21T03:23:50;101505.39;;;5.66;85.13
84841;BME280;75088;53.114;18.040;2024-02-21T03:24:57;101506.80;;;5.66;85.49
84841;BME280;75088;53.114;18.040;2024-02-21T03:26:04;101505.39;;;5.66;85.24
84841;BME280;75088;53.114;18.040;2024-02-21T03:27:11;101503.63;;;5.66;85.08
84841;BME280;75088;53.114;18.040;2024-02-21T03:28:19;101504.16;;;5.67;85.44
84841;BME280;75088;53.114;18.040;2024-02-21T03:29:26;101502.23;;;5.67;85.33
84841;BME280;75088;53.114;18.040;2024-02-21T03:30:33;101501.19;;;5.68;85.44
84841;BME280;75088;53.114;18.040;2024-02-21T03:31:40;101499.44;;;5.68;85.39
84841;BME280;75088;53.114;18.040;2024-02-21T03:32:47;101502.27;;;5.69;85.37
84841;BME280;75088;53.114;18.040;2024-02-21T03:33:54;101499.64;;;5.69;85.24
84841;BME280;75088;53.114;18.040;2024-02-21T03:35:01;101503.00;;;5.69;85.29
84841;BME280;75088;53.114;18.040;2024-02-21T03:36:14;101500.90;;;5.70;85.56
84841;BME280;75088;53.114;18.040;2024-02-21T03:37:21;101498.08;;;5.71;85.39
84841;BME280;75088;53.114;18.040;2024-02-21T03:38:28;101494.03;;;5.71;85.72
84841;BME280;75088;53.114;18.040;2024-02-21T03:39:36;101490.01;;;5.72;85.43
84841;BME280;75088;53.114;18.040;2024-02-21T03:40:43;101491.08;;;5.72;85.44
84841;BME280;75088;53.114;18.040;2024-02-21T03:41:50;101492.14;;;5.73;85.47
84841;BME280;75088;53.114;18.040;2024-02-21T03:42:59;101491.96;;;5.73;85.70
84841;BME280;75088;53.114;18.040;2024-02-21T03:44:06;101491.44;;;5.73;85.35
84841;BME280;75088;53.114;18.040;2024-02-21T03:45:13;101488.09;;;5.74;85.41
84841;BME280;75088;53.114;18.040;2024-02-21T03:46:21;101488.45;;;5.75;85.43
84841;BME280;75088;53.114;18.040;2024-02-21T03:47:28;101483.17;;;5.75;85.37
84841;BME280;75088;53.114;18.040;2024-02-21T03:48:35;101482.83;;;5.76;85.28
84841;BME280;75088;53.114;18.040;2024-02-21T03:49:42;101483.55;;;5.77;85.38
84841;BME280;75088;53.114;18.040;2024-02-21T03:50:49;101483.23;;;5.77;85.66
84841;BME280;75088;53.114;18.040;2024-02-21T03:51:59;101480.95;;;5.78;85.27
84841;BME280;75088;53.114;18.040;2024-02-21T03:53:06;101481.29;;;5.78;85.74
84841;BME280;75088;53.114;18.040;2024-02-21T03:54:13;101479.18;;;5.78;85.32
84841;BME280;75088;53.114;18.040;2024-02-21T03:55:20;101483.08;;;5.79;85.50
84841;BME280;75088;53.114;18.040;2024-02-21T03:56:28;101480.27;;;5.80;85.51
84841;BME280;75088;53.114;18.040;2024-02-21T03:57:35;101476.57;;;5.80;85.45
84841;BME280;75088;53.114;18.040;2024-02-21T03:58:42;101477.12;;;5.81;85.63
84841;BME280;75088;53.114;18.040;2024-02-21T03:59:51;101477.48;;;5.82;85.54
84841;BME280;75088;53.114;18.040;2024-02-21T04:00:59;101475.39;;;5.82;85.43
84841;BME280;75088;53.114;18.040;2024-02-21T04:02:06;101480.85;;;5.83;85.38
84841;BME280;75088;53.114;18.040;2024-02-21T04:03:14;101479.27;;;5.83;85.48
84841;BME280;75088;53.114;18.040;2024-02-21T04:04:21;101476.65;;;5.84;85.34
84841;BME280;75088;53.114;18.040;2024-02-21T04:05:29;101476.64;;;5.83;85.37
84841;BME280;75088;53.114;18.040;2024-02-21T04:06:36;101476.48;;;5.84;85.44
84841;BME280;75088;53.114;18.040;2024-02-21T04:07:43;101475.94;;;5.84;85.30
84841;BME280;75088;53.114;18.040;2024-02-21T04:08:50;101473.83;;;5.84;85.61
84841;BME280;75088;53.114;18.040;2024-02-21T04:09:57;101473.67;;;5.84;85.41
84841;BME280;75088;53.114;18.040;2024-02-21T04:11:04;101472.25;;;5.84;85.25
84841;BME280;75088;53.114;18.040;2024-02-21T04:12:12;101471.20;;;5.84;85.31
84841;BME280;75088;53.114;18.040;2024-02-21T04:13:19;101466.80;;;5.85;85.36
84841;BME280;75088;53.114;18.040;2024-02-21T04:14:28;101468.58;;;5.85;85.47
84841;BME280;75088;53.114;18.040;2024-02-21T04:15:35;101467.69;;;5.85;85.31
84841;BME280;75088;53.114;18.040;2024-02-21T04:16:42;101467.50;;;5.85;85.50
84841;BME280;75088;53.114;18.040;2024-02-21T04:17:49;101465.73;;;5.84;85.24
84841;BME280;75088;53.114;18.040;2024-02-21T04:18:56;101465.55;;;5.85;85.25
84841;BME280;75088;53.114;18.040;2024-02-21T04:20:13;101463.59;;;5.84;85.41
84841;BME280;75088;53.114;18.040;2024-02-21T04:21:20;101462.72;;;5.84;85.37
84841;BME280;75088;53.114;18.040;2024-02-21T04:22:27;101459.88;;;5.83;85.36
84841;BME280;75088;53.114;18.040;2024-02-21T04:23:34;101461.29;;;5.83;85.44
84841;BME280;75088;53.114;18.040;2024-02-21T04:24:41;101459.15;;;5.82;85.33
84841;BME280;75088;53.114;18.040;2024-02-21T04:25:48;101457.38;;;5.81;85.47
84841;BME280;75088;53.114;18.040;2024-02-21T04:26:55;101457.20;;;5.82;85.41
84841;BME280;75088;53.114;18.040;2024-02-21T04:28:02;101453.66;;;5.81;85.40
84841;BME280;75088;53.114;18.040;2024-02-21T04:29:10;101456.12;;;5.81;85.52
84841;BME280;75088;53.114;18.040;2024-02-21T04:30:19;101450.65;;;5.81;85.60
84841;BME280;75088;53.114;18.040;2024-02-21T04:31:26;101450.48;;;5.80;85.53
84841;BME280;75088;53.114;18.040;2024-02-21T04:32:33;101450.28;;;5.79;85.67
84841;BME280;75088;53.114;18.040;2024-02-21T04:33:41;101447.98;;;5.78;85.61
84841;BME280;75088;53.114;18.040;2024-02-21T04:34:48;101445.32;;;5.77;85.68
84841;BME280;75088;53.114;18.040;2024-02-21T04:35:55;101444.80;;;5.78;85.73
84841;BME280;75088;53.114;18.040;2024-02-21T04:37:04;101447.60;;;5.77;85.68
84841;BME280;75088;53.114;18.040;2024-02-21T04:38:11;101443.54;;;5.77;85.82
84841;BME280;75088;53.114;18.040;2024-02-21T04:39:20;101444.41;;;5.76;85.53
84841;BME280;75088;53.114;18.040;2024-02-21T04:40:27;101436.64;;;5.76;85.67
84841;BME280;75088;53.114;18.040;2024-02-21T04:41:34;101438.04;;;5.76;85.80
84841;BME280;75088;53.114;18.040;2024-02-21T04:42:41;101438.05;;;5.76;85.67
84841;BME280;75088;53.114;18.040;2024-02-21T04:43:48;101441.77;;;5.76;85.39
84841;BME280;75088;53.114;18.040;2024-02-21T04:44:55;101438.77;;;5.76;85.77
84841;BME280;75088;53.114;18.040;2024-02-21T04:46:03;101440.70;;;5.76;85.67
84841;BME280;75088;53.114;18.040;2024-02-21T04:47:11;101439.83;;;5.77;85.42
84841;BME280;75088;53.114;18.040;2024-02-21T04:48:18;101436.13;;;5.77;85.56
84841;BME280;75088;53.114;18.040;2024-02-21T04:49:25;101432.59;;;5.76;85.52
84841;BME280;75088;53.114;18.040;2024-02-21T04:50:32;101433.29;;;5.76;85.41
84841;BME280;75088;53.114;18.040;2024-02-21T04:51:40;101434.17;;;5.76;85.97
84841;BME280;75088;53.114;18.040;2024-02-21T04:52:48;101432.22;;;5.75;85.63
84841;BME280;75088;53.114;18.040;2024-02-21T04:53:55;101430.63;;;5.75;85.35
84841;BME280;75088;53.114;18.040;2024-02-21T04:55:03;101432.23;;;5.76;85.68
84841;BME280;75088;53.114;18.040;2024-02-21T04:56:10;101427.63;;;5.75;85.57
84841;BME280;75088;53.114;18.040;2024-02-21T04:57:17;101430.46;;;5.76;85.80
84841;BME280;75088;53.114;18.040;2024-02-21T04:58:24;101426.41;;;5.76;85.84
84841;BME280;75088;53.114;18.040;2024-02-21T04:59:33;101423.59;;;5.76;85.55
84841;BME280;75088;53.114;18.040;2024-02-21T05:00:41;101420.96;;;5.76;85.80
84841;BME280;75088;53.114;18.040;2024-02-21T05:01:49;101421.83;;;5.76;85.67
84841;BME280;75088;53.114;18.040;2024-02-21T05:02:56;101422.02;;;5.76;85.80
84841;BME280;75088;53.114;18.040;2024-02-21T05:04:03;101421.67;;;5.77;85.78
84841;BME280;75088;53.114;18.040;2024-02-21T05:05:10;101420.25;;;5.77;86.01
84841;BME280;75088;53.114;18.040;2024-02-21T05:06:17;101417.79;;;5.77;85.70
84841;BME280;75088;53.114;18.040;2024-02-21T05:07:24;101420.08;;;5.77;85.72
84841;BME280;75088;53.114;18.040;2024-02-21T05:08:31;101421.32;;;5.77;85.62
84841;BME280;75088;53.114;18.040;2024-02-21T05:09:38;101417.25;;;5.76;85.91
84841;BME280;75088;53.114;18.040;2024-02-21T05:10:45;101417.77;;;5.76;85.64
84841;BME280;75088;53.114;18.040;2024-02-21T05:11:52;101413.01;;;5.76;85.97
84841;BME280;75088;53.114;18.040;2024-02-21T05:13:00;101414.95;;;5.76;85.71
84841;BME280;75088;53.114;18.040;2024-02-21T05:14:07;101413.20;;;5.76;85.80
84841;BME280;75088;53.114;18.040;2024-02-21T05:15:14;101410.02;;;5.76;85.73
84841;BME280;75088;53.114;18.040;2024-02-21T05:16:21;101408.98;;;5.77;85.59
84841;BME280;75088;53.114;18.040;2024-02-21T05:17:29;101404.57;;;5.77;85.64
84841;BME280;75088;53.114;18.040;2024-02-21T05:18:37;101403.53;;;5.78;85.63
84841;BME280;75088;53.114;18.040;2024-02-21T05:19:44;101403.52;;;5.78;85.70
84841;BME280;75088;53.114;18.040;2024-02-21T05:20:51;101402.84;;;5.78;85.88
84841;BME280;75088;53.114;18.040;2024-02-21T05:21:58;101402.13;;;5.78;85.61
84841;BME280;75088;53.114;18.040;2024-02-21T05:23:06;101398.61;;;5.79;85.76
84841;BME280;75088;53.114;18.040;2024-02-21T05:24:13;101397.20;;;5.78;85.98
84841;BME280;75088;53.114;18.040;2024-02-21T05:25:20;101394.91;;;5.78;85.90
84841;BME280;75088;53.114;18.040;2024-02-21T05:26:29;101394.02;;;5.78;85.52
84841;BME280;75088;53.114;18.040;2024-02-21T05:27:36;101393.83;;;5.77;85.70
84841;BME280;75088;53.114;18.040;2024-02-21T05:28:44;101392.61;;;5.78;85.94
84841;BME280;75088;53.114;18.040;2024-02-21T05:29:51;101388.90;;;5.78;85.96
84841;BME280;75088;53.114;18.040;2024-02-21T05:30:58;101384.33;;;5.78;85.84
84841;BME280;75088;53.114;18.040;2024-02-21T05:32:06;101382.23;;;5.79;85.81
84841;BME280;75088;53.114;18.040;2024-02-21T05:33:13;101382.59;;;5.80;85.76
84841;BME280;75088;53.114;18.040;2024-02-21T05:34:26;101382.91;;;5.79;85.82
84841;BME280;75088;53.114;18.040;2024-02-21T05:35:34;101377.82;;;5.79;85.79
84841;BME280;75088;53.114;18.040;2024-02-21T05:36:41;101380.45;;;5.79;85.77
84841;BME280;75088;53.114;18.040;2024-02-21T05:37:48;101383.13;;;5.80;85.76
84841;BME280;75088;53.114;18.040;2024-02-21T05:38:58;101386.48;;;5.80;85.79
84841;BME280;75088;53.114;18.040;2024-02-21T05:40:07;101382.60;;;5.81;85.92
84841;BME280;75088;53.114;18.040;2024-02-21T05:41:14;101385.61;;;5.81;85.85
84841;BME280;75088;53.114;18.040;2024-02-21T05:42:21;101385.62;;;5.82;85.71
84841;BME280;75088;53.114;18.040;2024-02-21T05:43:28;101382.62;;;5.82;85.88
84841;BME280;75088;53.114;18.040;2024-02-21T05:44:35;101383.50;;;5.82;85.82
84841;BME280;75088;53.114;18.040;2024-02-21T05:45:42;101382.44;;;5.81;85.77
84841;BME280;75088;53.114;18.040;2024-02-21T05:46:49;101381.21;;;5.82;85.88
84841;BME280;75088;53.114;18.040;2024-02-21T05:47:57;101380.88;;;5.82;85.79
84841;BME280;75088;53.114;18.040;2024-02-21T05:49:04;101377.52;;;5.82;85.88
84841;BME280;75088;53.114;18.040;2024-02-21T05:50:12;101375.41;;;5.83;85.85
84841;BME280;75088;53.114;18.040;2024-02-21T05:51:19;101377.19;;;5.83;85.98
84841;BME280;75088;53.114;18.040;2024-02-21T05:52:26;101372.61;;;5.84;85.71
84841;BME280;75088;53.114;18.040;2024-02-21T05:53:34;101376.52;;;5.85;85.81